Time;durP1;ratioP1;P1;durP2;ratioP2;P2;SDS_P1;SDS_P2;PMS_P1;PMS_P2;Temp;Humidity;BMP_temperature;BMP_pressure;BME280_temperature;BME280_humidity;BME280_pressure;Samples;Min_cycle;Max_cycle;Signal;HPM_P1;HPM_P2
2021/05/21 00:01:04;;;;;;;1.80;1.50;;;;;;;;;;5056264;28;20544;-90
2021/05/21 00:03:31;;;;;;;1.57;1.47;;;;;;;;;;5057055;28;20461;-92
2021/05/21 00:05:58;;;;;;;1.90;1.40;;;;;;;;;;5056756;28;20922;-91
2021/05/21 00:08:24;;;;;;;1.53;1.43;;;;;;;;;;5056738;28;20446;-91
2021/05/21 00:10:51;;;;;;;1.80;1.20;;;;;;;;;;5057594;28;20441;-90
2021/05/21 00:13:18;;;;;;;1.87;1.60;;;10.20;99.90;;;;;;5061751;28;20896;-91
2021/05/21 00:15:44;;;;;;;1.70;1.60;;;;;;;;;;5057937;28;20453;-91
2021/05/21 00:18:16;;;;;;;1.40;1.30;;;10.30;99.90;;;;;;5056652;28;20447;-90
2021/05/21 00:20:42;;;;;;;2.73;1.93;;;;;;;;;;5057151;28;20458;-92
2021/05/21 00:23:09;;;;;;;1.87;1.37;;;;;;;;;;5058411;28;20439;-91
2021/05/21 00:25:35;;;;;;;2.40;1.40;;;;;;;;;;5057336;28;20512;-91
2021/05/21 00:28:02;;;;;;;2.80;1.70;;;;;;;;;;5056944;28;20442;-92
2021/05/21 00:30:29;;;;;;;2.17;1.80;;;10.20;99.90;;;;;;5057625;28;20454;-92
2021/05/21 00:32:56;;;;;;;2.00;1.37;;;;;;;;;;5056149;28;20474;-91
2021/05/21 00:35:23;;;;;;;4.17;1.50;;;;;;;;;;5057282;28;20496;-92
2021/05/21 00:37:49;;;;;;;2.77;1.40;;;;;;;;;;5057232;28;20442;-91
2021/05/21 00:40:18;;;;;;;1.60;1.50;;;;;;;;;;5050959;28;20455;-93
2021/05/21 00:42:54;;;;;;;1.70;1.40;;;10.10;99.90;;;;;;5047938;28;20438;-93
2021/05/21 00:45:25;;;;;;;2.50;1.37;;;;;;;;;;5048273;28;20466;-92
2021/05/21 00:47:55;;;;;;;2.00;1.23;;;;;;;;;;5042584;28;20458;-92
2021/05/21 00:50:22;;;;;;;2.30;1.40;;;;;;;;;;5043716;28;20433;-89
2021/05/21 00:52:51;;;;;;;5.13;1.57;;;;;;;;;;5045920;28;21056;-91
2021/05/21 00:55:18;;;;;;;1.50;1.30;;;;;;;;;;5056503;28;20438;-89
2021/05/21 00:57:48;;;;;;;2.73;1.37;;;;;;;;;;5036743;28;20464;-92
2021/05/21 01:00:15;;;;;;;1.83;1.70;;;;;;;;;;5038163;28;20467;-93
2021/05/21 01:02:42;;;;;;;1.70;1.37;;;;;;;;;;5047962;28;20457;-90
2021/05/21 01:05:20;;;;;;;2.97;1.87;;;;;;;;;;5046549;28;20456;-92
2021/05/21 01:07:47;;;;;;;1.80;1.70;;;;;;;;;;5056388;28;20438;-90
2021/05/21 01:10:14;;;;;;;2.40;1.70;;;;;;;;;;5056321;28;20474;-93
2021/05/21 01:12:41;;;;;;;1.50;1.40;;;;;;;;;;5050452;28;20489;-92
2021/05/21 01:15:10;;;;;;;2.87;1.67;;;10.10;99.90;;;;;;5042264;28;20446;-93
2021/05/21 01:17:37;;;;;;;1.60;1.50;;;;;;;;;;5046248;28;20442;-91
2021/05/21 01:20:05;;;;;;;1.60;1.50;;;10.00;99.90;;;;;;5056409;28;20435;-92
2021/05/21 01:22:32;;;;;;;2.23;1.77;;;9.90;99.90;;;;;;5056064;28;20466;-91
2021/05/21 01:24:59;;;;;;;2.07;1.33;;;;;;;;;;5051739;28;20508;-91
2021/05/21 01:27:26;;;;;;;4.57;1.77;;;;;;;;;;5055947;28;20447;-92
2021/05/21 01:29:53;;;;;;;3.20;1.60;;;;;;;;;;5056461;28;20816;-93
2021/05/21 01:32:19;;;;;;;1.70;1.60;;;;;;;;;;5056037;28;20487;-92
2021/05/21 01:34:46;;;;;;;2.60;1.73;;;;;;;;;;5055723;28;20478;-93
2021/05/21 01:37:15;;;;;;;2.00;1.40;;;9.80;99.90;;;;;;5055709;28;20516;-91
2021/05/21 01:39:42;;;;;;;1.37;1.27;;;9.80;99.90;;;;;;5053036;28;20948;-93
2021/05/21 01:42:11;;;;;;;1.50;1.30;;;9.70;99.90;;;;;;5056761;28;20462;-91
2021/05/21 01:44:38;;;;;;;2.10;1.70;;;;;;;;;;5056851;28;20451;-92
2021/05/21 01:47:04;;;;;;;2.47;1.63;;;;;;;;;;5053131;28;20450;-91
2021/05/21 01:49:31;;;;;;;2.50;1.50;;;;;;;;;;5055667;28;20435;-92
2021/05/21 01:52:00;;;;;;;3.13;1.20;;;9.70;99.90;;;;;;5056042;28;20434;-90
2021/05/21 01:54:28;;;;;;;1.73;1.50;;;9.80;99.90;;;;;;5055338;28;20446;-90
2021/05/21 01:56:56;;;;;;;1.90;1.63;;;9.50;99.90;;;;;;5055269;28;20462;-91
2021/05/21 01:59:23;;;;;;;2.90;2.10;;;9.80;99.90;;;;;;5055063;28;20455;-92
2021/05/21 02:01:50;;;;;;;4.83;1.60;;;;;;;;;;5054068;28;20449;-92
2021/05/21 02:04:27;;;;;;;1.90;1.70;;;9.80;99.90;;;;;;5055777;28;20443;-90
2021/05/21 02:06:53;;;;;;;2.87;2.13;;;;;;;;;;5055023;28;20447;-91
2021/05/21 02:09:20;;;;;;;2.53;1.80;;;;;;;;;;5062635;28;20462;-89
2021/05/21 02:11:46;;;;;;;2.60;1.60;;;;;;;;;;5069230;28;20584;-91
2021/05/21 02:14:15;;;;;;;3.40;1.93;;;8.00;99.90;;;;;;5056210;28;20461;-93
2021/05/21 02:16:41;;;;;;;1.70;1.60;;;;;;;;;;5055925;28;20439;-91
2021/05/21 02:19:08;;;;;;;2.27;1.77;;;9.70;99.90;;;;;;5056425;28;20435;-92
2021/05/21 02:21:34;;;;;;;3.60;2.43;;;9.70;99.90;;;;;;5055186;28;20926;-93
2021/05/21 02:24:03;;;;;;;3.30;1.80;;;9.80;99.90;;;;;;5055113;28;20472;-91
2021/05/21 02:26:31;;;;;;;3.13;2.07;;;9.80;99.90;;;;;;5055472;28;20485;-90
2021/05/21 02:28:57;;;;;;;2.60;2.00;;;;;;;;;;5055547;28;20462;-90
2021/05/21 02:31:25;;;;;;;2.80;1.77;;;9.70;99.90;;;;;;5054900;28;20435;-91
2021/05/21 02:33:51;;;;;;;2.17;1.70;;;;;;;;;;5053689;28;20521;-91
2021/05/21 02:36:18;;;;;;;1.87;1.40;;;;;;;;;;5054361;28;20510;-93
2021/05/21 02:38:45;;;;;;;2.00;1.80;;;;;;;;;;5054766;28;20447;-93
2021/05/21 02:41:11;;;;;;;1.50;1.40;;;;;;;;;;5054843;28;20427;-92
2021/05/21 02:43:38;;;;;;;3.27;1.33;;;;;;;;;;5056209;28;20458;-93
2021/05/21 02:46:04;;;;;;;2.50;1.37;;;;;;;;;;5054250;28;20439;-91
2021/05/21 02:48:32;;;;;;;3.30;1.13;;;9.70;99.90;;;;;;5056023;28;20438;-90
2021/05/21 02:50:58;;;;;;;1.43;1.30;;;;;;;;;;5056286;28;20450;-91
2021/05/21 02:53:25;;;;;;;1.67;1.27;;;10.00;99.90;;;;;;5058957;28;20512;-91
2021/05/21 02:55:52;;;;;;;1.00;0.90;;;;;;;;;;5059464;28;20446;-92
2021/05/21 02:58:20;;;;;;;1.37;1.20;;;;;;;;;;5059378;28;20431;-91
2021/05/21 03:00:46;;;;;;;1.90;1.10;;;;;;;;;;5058742;28;20443;-91
2021/05/21 03:03:13;;;;;;;0.77;0.77;;;;;;;;;;5057412;28;20439;-90
2021/05/21 03:05:40;;;;;;;1.43;1.00;;;10.20;99.90;;;;;;5057828;28;20442;-93
2021/05/21 03:08:07;;;;;;;2.73;0.70;;;;;;;;;;5058743;28;20443;-92
2021/05/21 03:10:33;;;;;;;1.00;0.90;;;;;;;;;;5057454;28;20906;-91
2021/05/21 03:13:00;;;;;;;2.60;1.10;;;;;;;;;;5057609;28;20497;-92
2021/05/21 03:15:28;;;;;;;0.83;0.73;;;;;;;;;;5062063;28;20424;-90
2021/05/21 03:17:55;;;;;;;1.73;0.70;;;;;;;;;;5056594;28;20504;-90
2021/05/21 03:20:22;;;;;;;1.20;0.90;;;10.10;99.90;;;;;;5057569;28;20439;-92
2021/05/21 03:22:49;;;;;;;1.10;0.93;;;9.30;99.90;;;;;;5062199;28;20442;-90
2021/05/21 03:25:16;;;;;;;1.90;0.83;;;;;;;;;;5059456;28;20474;-92
2021/05/21 03:27:43;;;;;;;2.43;1.20;;;;;;;;;;5062263;28;20454;-90
2021/05/21 03:30:11;;;;;;;2.47;1.10;;;10.40;99.90;;;;;;5063945;28;20431;-91
2021/05/21 03:32:37;;;;;;;1.60;1.17;;;;;;;;;;5057784;28;20498;-92
2021/05/21 03:35:05;;;;;;;1.57;0.90;;;10.10;99.90;;;;;;5060034;28;20988;-93
2021/05/21 03:37:31;;;;;;;1.40;1.10;;;;;;;;;;5060709;28;20470;-91
2021/05/21 03:39:59;;;;;;;1.23;1.13;;;9.80;99.90;;;;;;5055692;28;20450;-93
2021/05/21 03:42:25;;;;;;;1.33;0.97;;;;;;;;;;5056979;28;20451;-92
2021/05/21 03:44:52;;;;;;;2.20;1.07;;;;;;;;;;5057240;28;20427;-92
2021/05/21 03:47:20;;;;;;;1.30;1.20;;;;;;;;;;5048983;28;20787;-92
2021/05/21 03:50:09;;;;;;;1.53;1.30;;;;;;;;;;5046243;28;20447;-90
2021/05/21 03:52:37;;;;;;;4.10;1.07;;;;;;;;;;5042844;28;20474;-91
2021/05/21 03:55:10;;;;;;;0.87;0.80;;;;;;;;;;5044227;28;20526;-89
2021/05/21 03:57:39;;;;;;;2.30;1.10;;;;;;;;;;5046759;28;20458;-92
2021/05/21 04:00:15;;;;;;;1.53;1.07;;;9.80;99.90;;;;;;5046615;28;20444;-93
2021/05/21 04:02:45;;;;;;;2.97;1.07;;;;;;;;;;5042419;28;20439;-89
2021/05/21 04:05:15;;;;;;;1.17;1.07;;;;;;;;;;5044550;28;20474;-91
2021/05/21 04:07:45;;;;;;;1.10;1.00;;;9.80;99.90;;;;;;5043802;28;20566;-93
2021/05/21 04:10:15;;;;;;;1.07;0.90;;;9.90;99.90;;;;;;5049244;28;20446;-92
2021/05/21 04:12:44;;;;;;;1.20;0.80;;;9.90;99.90;;;;;;5054453;28;20544;-92
2021/05/21 04:15:19;;;;;;;0.83;0.73;;;9.90;99.90;;;;;;5047734;28;20453;-91
2021/05/21 04:17:45;;;;;;;1.77;0.90;;;;;;;;;;5050904;28;20438;-92
2021/05/21 04:20:15;;;;;;;1.07;0.97;;;10.10;99.90;;;;;;5038961;28;20440;-92
2021/05/21 04:22:44;;;;;;;0.80;0.70;;;10.20;99.90;;;;;;5040151;28;20444;-93
2021/05/21 04:25:15;;;;;;;1.40;0.87;;;10.40;99.90;;;;;;5044247;28;20481;-91
2021/05/21 04:27:41;;;;;;;1.80;0.90;;;;;;;;;;5048090;28;20498;-91
2021/05/21 04:30:11;;;;;;;1.27;0.70;;;10.20;99.90;;;;;;5058834;28;20438;-88
2021/05/21 04:32:46;;;;;;;5.30;0.90;;;;;;;;;;5045877;28;20475;-90
2021/05/21 04:35:13;;;;;;;1.10;0.80;;;;;;;;;;5048278;28;20471;-90
2021/05/21 04:37:46;;;;;;;2.90;1.10;;;;;;;;;;5047436;28;20501;-93
2021/05/21 04:40:13;;;;;;;1.30;1.00;;;;;;;;;;5051996;28;20438;-88
2021/05/21 04:42:41;;;;;;;1.33;0.90;;;;;;;;;;5041673;28;20973;-89
2021/05/21 04:45:09;;;;;;;1.13;1.00;;;10.30;99.90;;;;;;5050899;28;20442;-93
2021/05/21 04:47:38;;;;;;;1.27;0.87;;;;;;;;;;5041285;28;20443;-91
2021/05/21 04:50:06;;;;;;;1.80;0.80;;;10.30;99.90;;;;;;5056546;28;20450;-88
2021/05/21 04:52:33;;;;;;;2.00;0.87;;;;;;;;;;5056476;28;20478;-88
2021/05/21 04:54:59;;;;;;;1.27;0.80;;;;;;;;;;5053366;28;20450;-88
2021/05/21 04:57:26;;;;;;;0.93;0.80;;;;;;;;;;5055664;28;20450;-88
2021/05/21 04:59:53;;;;;;;2.00;0.93;;;10.60;99.90;;;;;;5056163;28;21000;-90
2021/05/21 05:02:20;;;;;;;1.90;1.20;;;;;;;;;;5054594;28;20496;-89
2021/05/21 05:04:46;;;;;;;2.37;1.23;;;;;;;;;;5056489;28;20442;-89
2021/05/21 05:07:13;;;;;;;2.00;1.00;;;;;;;;;;5055629;28;20439;-91
2021/05/21 05:09:39;;;;;;;1.90;0.80;;;;;;;;;;5055554;28;20799;-87
2021/05/21 05:12:07;;;;;;;1.17;0.97;;;11.10;99.90;;;;;;5056701;28;20454;-91
2021/05/21 05:14:33;;;;;;;0.80;0.80;;;;;;;;;;5056496;28;20450;-89
2021/05/21 05:17:01;;;;;;;1.00;0.83;;;11.50;99.90;;;;;;5054486;28;20434;-90
2021/05/21 05:19:27;;;;;;;1.23;1.03;;;;;;;;;;5055200;28;20942;-90
2021/05/21 05:21:54;;;;;;;1.70;1.20;;;;;;;;;;5055483;28;20442;-89
2021/05/21 05:24:22;;;;;;;1.60;1.10;;;11.50;99.90;;;;;;5055060;28;20462;-89
2021/05/21 05:26:49;;;;;;;0.70;0.70;;;;;;;;;;5055117;28;20454;-88
2021/05/21 05:29:15;;;;;;;0.70;0.67;;;;;;;;;;5055448;28;20438;-91
2021/05/21 05:31:46;;;;;;;1.77;0.90;;;;;;;;;;5054687;28;20791;-92
2021/05/21 05:34:14;;;;;;;1.10;0.97;;;11.80;99.90;;;;;;5054865;28;20502;-90
2021/05/21 05:36:41;;;;;;;2.10;0.90;;;;;;;;;;5054864;28;20446;-89
2021/05/21 05:39:08;;;;;;;1.90;0.73;;;;;;;;;;5055265;28;20442;-89
2021/05/21 05:41:35;;;;;;;1.37;1.00;;;;;;;;;;5055769;28;20430;-91
2021/05/21 05:44:01;;;;;;;2.23;0.80;;;;;;;;;;5058836;28;20450;-91
2021/05/21 05:46:28;;;;;;;3.07;1.13;;;;;;;;;;5056167;28;20902;-91
2021/05/21 05:48:54;;;;;;;0.90;0.80;;;;;;;;;;5056728;28;20809;-91
2021/05/21 05:51:22;;;;;;;0.90;0.80;;;12.20;99.90;;;;;;5059002;28;20559;-93
2021/05/21 05:53:49;;;;;;;2.60;1.03;;;;;;;;;;5059011;28;20930;-93
2021/05/21 05:56:16;;;;;;;0.93;0.80;;;;;;;;;;5056450;28;20455;-91
2021/05/21 05:58:42;;;;;;;1.00;0.90;;;;;;;;;;5057215;28;20447;-91
2021/05/21 06:01:09;;;;;;;1.20;1.00;;;;;;;;;;5055560;28;20445;-90
2021/05/21 06:03:35;;;;;;;1.83;1.00;;;;;;;;;;5056688;28;20480;-92
2021/05/21 06:06:02;;;;;;;1.10;0.90;;;;;;;;;;5056784;28;20453;-92
2021/05/21 06:08:29;;;;;;;1.00;0.80;;;;;;;;;;5056588;28;20455;-90
2021/05/21 06:10:57;;;;;;;1.03;0.70;;;;;;;;;;5058883;28;20431;-91
2021/05/21 06:13:25;;;;;;;2.00;0.90;;;12.80;99.90;;;;;;5058091;28;21052;-90
2021/05/21 06:15:52;;;;;;;0.77;0.53;;;;;;;;;;5054015;28;20423;-94
2021/05/21 06:18:18;;;;;;;2.77;0.60;;;;;;;;;;5056177;28;20435;-93
2021/05/21 06:20:45;;;;;;;1.70;0.60;;;;;;;;;;5057179;28;20450;-91
2021/05/21 06:23:11;;;;;;;2.00;0.70;;;;;;;;;;5056283;28;20470;-92
2021/05/21 06:25:52;;;;;;;0.90;0.80;;;12.80;99.90;;;;;;5055306;28;20461;-91
2021/05/21 06:28:22;;;;;;;1.50;0.73;;;13.10;99.90;;;;;;5055042;28;21017;-91
2021/05/21 06:30:48;;;;;;;0.80;0.63;;;;;;;;;;5053723;28;20458;-90
2021/05/21 06:33:15;;;;;;;1.33;1.10;;;;;;;;;;5054220;28;20528;-91
2021/05/21 06:35:45;;;;;;;0.90;0.60;;;;;;;;;;5057143;28;20434;-91
2021/05/21 06:38:12;;;;;;;1.13;0.70;;;;;;;;;;5058111;28;20439;-92
2021/05/21 06:40:39;;;;;;;1.30;0.77;;;13.00;99.90;;;;;;5058673;28;20446;-92
2021/05/21 06:43:09;;;;;;;0.73;0.60;;;13.00;99.90;;;;;;5054917;28;20459;-91
2021/05/21 06:45:36;;;;;;;0.50;0.50;;;;;;;;;;5068657;28;20438;-89
2021/05/21 06:48:03;;;;;;;6.77;1.43;;;;;;;;;;5073372;28;20439;-91
2021/05/21 06:50:30;;;;;;;1.40;0.80;;;;;;;;;;5065233;28;20451;-91
2021/05/21 06:52:57;;;;;;;1.27;0.70;;;;;;;;;;5062693;28;20478;-90
2021/05/21 06:55:24;;;;;;;2.43;1.40;;;;;;;;;;5058766;28;20446;-92
2021/05/21 06:57:51;;;;;;;0.70;0.63;;;;;;;;;;5060629;28;20462;-91
2021/05/21 07:00:19;;;;;;;3.33;1.07;;;13.20;99.90;;;;;;5057005;28;20451;-87
2021/05/21 07:02:46;;;;;;;0.80;0.60;;;;;;;;;;5052856;28;20465;-86
2021/05/21 07:05:14;;;;;;;2.23;0.70;;;13.30;99.90;;;;;;5054296;28;20447;-90
2021/05/21 07:07:40;;;;;;;0.80;0.77;;;;;;;;;;5054208;28;20450;-86
2021/05/21 07:10:08;;;;;;;3.27;0.90;;;;;;;;;;5053357;28;20467;-88
2021/05/21 07:12:35;;;;;;;0.83;0.60;;;;;;;;;;5053955;28;20817;-91
2021/05/21 07:15:03;;;;;;;1.07;0.70;;;13.40;99.90;;;;;;5054191;28;20451;-88
2021/05/21 07:17:30;;;;;;;1.43;0.60;;;;;;;;;;5056987;28;20446;-91
2021/05/21 07:19:56;;;;;;;2.40;0.80;;;;;;;;;;5051581;28;20463;-89
2021/05/21 07:22:23;;;;;;;1.50;0.63;;;;;;;;;;5060166;28;20458;-91
2021/05/21 07:24:50;;;;;;;0.67;0.50;;;;;;;;;;5061219;28;20438;-91
2021/05/21 07:27:16;;;;;;;2.33;0.70;;;;;;;;;;5061827;28;20431;-89
2021/05/21 07:29:43;;;;;;;0.77;0.60;;;;;;;;;;5059996;28;20458;-91
2021/05/21 07:32:10;;;;;;;1.53;0.80;;;13.50;99.90;;;;;;5058530;28;20445;-90
2021/05/21 07:34:37;;;;;;;1.43;0.80;;;;;;;;;;5058885;28;20486;-92
2021/05/21 07:37:03;;;;;;;1.23;0.80;;;;;;;;;;5059718;28;20492;-92
2021/05/21 07:39:30;;;;;;;0.80;0.80;;;;;;;;;;5061527;28;20512;-88
2021/05/21 07:41:58;;;;;;;0.60;0.40;;;;;;;;;;5056399;28;20438;-89
2021/05/21 07:44:25;;;;;;;0.80;0.60;;;;;;;;;;5050520;28;20463;-91
2021/05/21 07:46:52;;;;;;;1.07;0.53;;;;;;;;;;5048230;28;20440;-90
2021/05/21 07:49:24;;;;;;;0.60;0.60;;;13.70;99.90;;;;;;5039059;28;20448;-92
2021/05/21 07:51:51;;;;;;;4.20;0.80;;;;;;;;;;5059920;28;20453;-91
2021/05/21 07:54:17;;;;;;;1.43;0.63;;;;;;;;;;5038906;28;20482;-92
2021/05/21 07:56:44;;;;;;;1.37;0.70;;;;;;;;;;5039163;28;20505;-92
2021/05/21 07:59:12;;;;;;;1.00;0.73;;;;;;;;;;5041997;28;20462;-91
2021/05/21 08:01:39;;;;;;;5.40;0.80;;;;;;;;;;5043053;28;20455;-90
2021/05/21 08:04:06;;;;;;;1.00;0.70;;;;;;;;;;5041713;28;20474;-90
2021/05/21 08:06:34;;;;;;;0.80;0.53;;;;;;;;;;5041575;28;20458;-87
2021/05/21 08:09:04;;;;;;;1.40;0.80;;;;;;;;;;5048048;28;20434;-91
2021/05/21 08:11:31;;;;;;;0.63;0.47;;;;;;;;;;5061283;28;20447;-88
2021/05/21 08:13:57;;;;;;;0.90;0.70;;;;;;;;;;5056493;28;20497;-88
2021/05/21 08:16:24;;;;;;;1.77;0.83;;;;;;;;;;5048993;28;20792;-87
2021/05/21 08:18:51;;;;;;;0.73;0.73;;;;;;;;;;5045098;28;20772;-87
2021/05/21 08:21:17;;;;;;;1.80;0.60;;;;;;;;;;5057538;28;20450;-88
2021/05/21 08:23:45;;;;;;;3.03;0.87;;;;;;;;;;5049840;28;20498;-88
2021/05/21 08:26:11;;;;;;;2.27;1.10;;;;;;;;;;5055679;28;20479;-89
2021/05/21 08:28:38;;;;;;;1.80;0.73;;;;;;;;;;5059099;28;20439;-89
2021/05/21 08:31:05;;;;;;;0.80;0.50;;;;;;;;;;5049310;28;20964;-89
2021/05/21 08:33:32;;;;;;;1.47;0.70;;;;;;;;;;5039824;28;20491;-87
2021/05/21 08:35:59;;;;;;;3.13;0.70;;;;;;;;;;5036438;28;20787;-88
2021/05/21 08:38:25;;;;;;;1.10;0.70;;;;;;;;;;5036004;28;20478;-86
2021/05/21 08:40:52;;;;;;;2.07;0.60;;;14.30;99.90;;;;;;5035974;28;20451;-86
2021/05/21 08:43:19;;;;;;;1.37;0.60;;;;;;;;;;5037671;28;20466;-88
2021/05/21 08:45:45;;;;;;;0.70;0.70;;;;;;;;;;5036045;28;20950;-86
2021/05/21 08:48:17;;;;;;;1.37;0.60;;;14.40;99.90;;;;;;5036121;28;20447;-87
2021/05/21 08:50:44;;;;;;;1.33;0.97;;;;;;;;;;5036368;28;20958;-90
2021/05/21 08:53:11;;;;;;;1.03;0.60;;;;;;;;;;5038077;28;20490;-89
2021/05/21 08:55:37;;;;;;;1.10;0.90;;;;;;;;;;5036230;28;20448;-87
2021/05/21 08:58:10;;;;;;;1.60;0.70;;;14.50;99.90;;;;;;5036311;28;20493;-88
2021/05/21 09:00:37;;;;;;;1.57;0.40;;;;;;;;;;5035731;28;20974;-88
2021/05/21 09:03:22;;;;;;;2.43;0.70;;;14.50;99.50;;;;;;5035965;28;20459;-92
2021/05/21 09:06:12;;;;;;;1.90;0.60;;;14.50;99.50;;;;;;5035733;28;20455;-86
2021/05/21 09:08:43;;;;;;;0.70;0.60;;;14.50;99.70;;;;;;5035270;28;20490;-86
2021/05/21 09:11:24;;;;;;;0.80;0.60;;;14.60;99.70;;;;;;5035136;28;20812;-84
2021/05/21 09:13:52;;;;;;;2.30;0.90;;;14.50;99.80;;;;;;5046072;28;20490;-85
2021/05/21 09:16:22;;;;;;;0.70;0.60;;;14.50;99.90;;;;;;5035613;28;20455;-85
2021/05/21 09:18:59;;;;;;;0.90;0.60;;;14.40;99.90;;;;;;5034530;28;20451;-85
2021/05/21 09:21:26;;;;;;;1.00;0.80;;;;;;;;;;5032185;28;20458;-85
2021/05/21 09:24:02;;;;;;;0.97;0.70;;;14.80;99.90;;;;;;5034632;28;20909;-85
2021/05/21 09:26:39;;;;;;;1.43;0.70;;;14.30;99.90;;;;;;5034735;28;20459;-86
2021/05/21 09:29:06;;;;;;;0.70;0.47;;;14.40;99.90;;;;;;5035236;28;20459;-90
2021/05/21 09:31:41;;;;;;;0.97;0.63;;;14.40;99.90;;;;;;5034336;28;20535;-88
2021/05/21 09:34:08;;;;;;;1.40;0.47;;;;;;;;;;5034578;28;20502;-85
2021/05/21 09:36:36;;;;;;;0.63;0.63;;;;;;;;;;5035019;28;20459;-89
2021/05/21 09:39:05;;;;;;;1.27;0.90;;;14.30;99.90;;;;;;5036750;28;20452;-86
2021/05/21 09:41:44;;;;;;;0.90;0.50;;;14.30;99.90;;;;;;5042614;28;20981;-87
2021/05/21 09:44:13;;;;;;;0.70;0.50;;;14.40;99.90;;;;;;5034232;28;20502;-84
2021/05/21 09:46:40;;;;;;;1.00;0.60;;;14.30;99.90;;;;;;5033576;28;20452;-86
2021/05/21 09:49:25;;;;;;;0.70;0.40;;;14.30;99.90;;;;;;5034516;28;20498;-87
2021/05/21 09:51:52;;;;;;;1.83;0.40;;;;;;;;;;5032742;28;21014;-87
2021/05/21 09:54:18;;;;;;;8.90;0.73;;;;;;;;;;5034795;28;20452;-86
2021/05/21 09:57:00;;;;;;;0.60;0.40;;;14.10;99.90;;;;;;5050233;28;20481;-88
2021/05/21 09:59:41;;;;;;;0.50;0.50;;;14.10;99.90;;;;;;5044859;28;20451;-87
2021/05/21 10:02:24;;;;;;;0.90;0.60;;;14.10;99.90;;;;;;5036367;28;20467;-87
2021/05/21 10:04:52;;;;;;;0.97;0.60;;;13.90;99.90;;;;;;5038497;28;20487;-85
2021/05/21 10:07:19;;;;;;;0.70;0.40;;;13.90;99.90;;;;;;5053312;28;20462;-87
2021/05/21 10:09:46;;;;;;;1.70;1.20;;;;;;;;;;5050023;28;20496;-87
2021/05/21 10:12:13;;;;;;;0.80;0.40;;;;;;;;;;5053243;28;20455;-88
2021/05/21 10:14:47;;;;;;;0.50;0.50;;;;;;;;;;5055852;28;20455;-85
2021/05/21 10:17:17;;;;;;;0.67;0.47;;;13.90;99.90;;;;;;5055236;28;20550;-89
2021/05/21 10:19:44;;;;;;;0.40;0.30;;;;;;;;;;5054913;28;20459;-86
2021/05/21 10:22:13;;;;;;;0.67;0.33;;;13.80;99.90;;;;;;5056210;28;20474;-87
2021/05/21 10:24:42;;;;;;;0.50;0.40;;;13.70;99.90;;;;;;5054523;28;20494;-84
2021/05/21 10:27:15;;;;;;;0.50;0.37;;;13.80;99.90;;;;;;5057983;28;20535;-85
2021/05/21 10:29:50;;;;;;;0.80;0.60;;;13.70;99.90;;;;;;5056688;28;20455;-86
2021/05/21 10:32:18;;;;;;;0.80;0.77;;;13.80;99.90;;;;;;5039271;28;20457;-88
2021/05/21 10:34:48;;;;;;;1.87;0.90;;;13.80;99.90;;;;;;5040159;28;20486;-84
2021/05/21 10:37:27;;;;;;;0.90;0.60;;;13.80;99.90;;;;;;5054011;28;20537;-87
2021/05/21 10:40:05;;;;;;;2.80;1.00;;;13.80;99.90;;;;;;5052704;28;20953;-85
2021/05/21 10:42:37;;;;;;;3.60;0.57;;;13.90;99.90;;;;;;5052640;28;20873;-87
2021/05/21 10:45:09;;;;;;;1.40;0.90;;;13.90;99.90;;;;;;5052676;28;20450;-87
2021/05/21 10:47:37;;;;;;;2.67;0.87;;;14.00;99.90;;;;;;5051326;28;20455;-85
2021/05/21 10:50:22;;;;;;;1.80;0.63;;;13.90;99.90;;;;;;5052096;28;20446;-86
2021/05/21 10:52:59;;;;;;;4.03;1.00;;;14.00;99.90;;;;;;5052665;28;20469;-85
2021/05/21 10:55:47;;;;;;;1.20;0.80;;;14.20;99.90;;;;;;5052322;28;20459;-87
2021/05/21 10:58:20;;;;;;;1.03;0.70;;;14.10;99.90;;;;;;5046601;28;20455;-87
2021/05/21 11:01:20;;;;;;;4.57;2.67;;;14.20;99.90;;;;;;5051644;28;20450;-84
2021/05/21 11:04:08;;;;;;;4.80;1.40;;;14.30;99.90;;;;;;5050187;28;20515;-84
2021/05/21 11:06:55;;;;;;;0.77;0.77;;;14.20;99.90;;;;;;5051294;28;20537;-83
2021/05/21 11:09:24;;;;;;;1.60;1.50;;;14.30;99.90;;;;;;5050194;28;20439;-86
2021/05/21 11:11:53;;;;;;;4.43;0.60;;;14.30;99.90;;;;;;5048513;28;20442;-86
2021/05/21 11:14:31;;;;;;;1.00;0.70;;;14.30;99.90;;;;;;5050123;28;20459;-83
2021/05/21 11:17:07;;;;;;;3.47;1.13;;;14.30;99.90;;;;;;5050837;28;20457;-88
2021/05/21 11:19:35;;;;;;;1.63;1.43;;;16.70;99.90;;;;;;5052556;28;20434;-90
2021/05/21 11:22:07;;;;;;;1.77;1.00;;;14.60;99.90;;;;;;5052128;28;20467;-86
2021/05/21 11:24:36;;;;;;;1.10;0.70;;;14.50;99.90;;;;;;5052311;28;20490;-88
2021/05/21 11:27:07;;;;;;;1.03;0.87;;;14.70;99.90;;;;;;5052246;28;20457;-87
2021/05/21 11:29:34;;;;;;;0.80;0.60;;;14.70;99.90;;;;;;5052456;28;20462;-85
2021/05/21 11:32:01;;;;;;;2.80;0.70;;;;;;;;;;5050981;28;20457;-85
2021/05/21 11:34:28;;;;;;;0.60;0.57;;;;;;;;;;5052245;28;20570;-85
2021/05/21 11:36:56;;;;;;;1.30;1.20;;;14.60;99.90;;;;;;5052515;28;20485;-86
2021/05/21 11:39:25;;;;;;;1.67;0.90;;;14.80;99.90;;;;;;5052530;28;20815;-88
2021/05/21 11:41:53;;;;;;;1.33;0.43;;;;;;;;;;5052453;28;20461;-84
2021/05/21 11:44:20;;;;;;;1.00;0.70;;;;;;;;;;5057854;28;20521;-91
2021/05/21 11:46:46;;;;;;;1.00;0.67;;;;;;;;;;5057785;28;20454;-89
2021/05/21 11:49:19;;;;;;;0.80;0.70;;;14.70;99.90;;;;;;5058353;28;20466;-91
2021/05/21 11:51:45;;;;;;;0.70;0.50;;;;;;;;;;5057175;28;20450;-87
2021/05/21 11:54:12;;;;;;;0.60;0.30;;;14.50;99.90;;;;;;5056615;28;20474;-86
2021/05/21 11:56:40;;;;;;;0.70;0.40;;;14.40;99.90;;;;;;5058529;28;20446;-88
2021/05/21 11:59:08;;;;;;;0.97;0.70;;;14.30;99.90;;;;;;5059135;28;20458;-90
2021/05/21 12:01:36;;;;;;;1.37;0.80;;;14.40;99.90;;;;;;5053977;28;20470;-89
2021/05/21 12:04:04;;;;;;;1.23;0.50;;;14.20;99.90;;;;;;5059489;28;20502;-91
2021/05/21 12:06:31;;;;;;;1.47;0.83;;;;;;;;;;5063423;28;20861;-90
2021/05/21 12:08:58;;;;;;;1.30;1.13;;;;;;;;;;5059948;28;20450;-92
2021/05/21 12:11:26;;;;;;;2.70;2.27;;;;;;;;;;5061326;28;20446;-90
2021/05/21 12:13:52;;;;;;;1.03;0.80;;;;;;;;;;5063958;28;20913;-86
2021/05/21 12:16:20;;;;;;;2.03;0.83;;;14.40;99.90;;;;;;5056270;28;20444;-89
2021/05/21 12:18:47;;;;;;;2.30;0.60;;;;;;;;;;5055983;28;20878;-89
2021/05/21 12:21:20;;;;;;;1.03;0.50;;;14.50;99.90;;;;;;5055882;28;21022;-89
2021/05/21 12:23:50;;;;;;;5.03;3.50;;;;;;;;;;5055761;28;20498;-91
2021/05/21 12:26:19;;;;;;;4.53;1.73;;;14.40;99.90;;;;;;5058107;28;20500;-91
2021/05/21 12:28:46;;;;;;;4.37;2.30;;;14.60;99.90;;;;;;5056191;28;20504;-92
2021/05/21 12:31:13;;;;;;;1.80;1.07;;;;;;;;;;5056183;28;20453;-88
2021/05/21 12:33:40;;;;;;;1.53;1.00;;;;;;;;;;5056905;28;20474;-92
2021/05/21 12:36:11;;;;;;;1.83;1.43;;;14.30;99.90;;;;;;5057371;28;20431;-91
2021/05/21 12:38:37;;;;;;;1.90;1.50;;;;;;;;;;5053833;28;20495;-92
2021/05/21 12:41:04;;;;;;;3.03;2.33;;;;;;;;;;5059409;28;20508;-91
2021/05/21 12:43:32;;;;;;;6.20;2.83;;;14.50;99.90;;;;;;5057087;28;20470;-91
2021/05/21 12:46:04;;;;;;;1.57;0.97;;;14.20;99.90;;;;;;5056775;28;20484;-90
2021/05/21 12:48:32;;;;;;;1.47;0.87;;;14.40;99.90;;;;;;5056962;28;20509;-90
2021/05/21 12:51:13;;;;;;;1.03;0.87;;;14.50;99.90;;;;;;5055828;28;20461;-88
2021/05/21 12:53:39;;;;;;;1.63;0.60;;;;;;;;;;5055676;28;20952;-88
2021/05/21 12:56:06;;;;;;;2.03;1.10;;;;;;;;;;5056652;28;21018;-87
2021/05/21 12:58:43;;;;;;;2.40;1.07;;;14.40;99.90;;;;;;5055893;28;20933;-90
2021/05/21 13:01:11;;;;;;;0.60;0.57;;;;;;;;;;5055910;28;20997;-92
2021/05/21 13:03:54;;;;;;;2.10;1.70;;;14.10;99.90;;;;;;5058130;28;20531;-92
2021/05/21 13:06:39;;;;;;;2.60;1.13;;;14.10;99.90;;;;;;5059151;28;20454;-91
2021/05/21 13:09:07;;;;;;;2.50;1.63;;;14.10;99.90;;;;;;5058002;28;20455;-93
2021/05/21 13:11:49;;;;;;;0.77;0.70;;;14.10;99.90;;;;;;5057681;28;20458;-92
2021/05/21 13:14:16;;;;;;;0.60;0.50;;;;;;;;;;5062382;28;20480;-90
2021/05/21 13:16:46;;;;;;;0.70;0.70;;;14.00;99.90;;;;;;5062084;28;20457;-89
2021/05/21 13:19:24;;;;;;;0.90;0.70;;;13.80;99.90;;;;;;5061413;28;20514;-90
2021/05/21 13:21:51;;;;;;;0.90;0.70;;;;;;;;;;5057081;28;20458;-94
2021/05/21 13:24:21;;;;;;;2.37;0.60;;;;;;;;;;5059240;28;20486;-91
2021/05/21 13:26:50;;;;;;;0.50;0.30;;;13.70;99.90;;;;;;5058602;28;20463;-91
2021/05/21 13:29:17;;;;;;;0.60;0.30;;;;;;;;;;5059670;28;20450;-91
2021/05/21 13:31:44;;;;;;;1.13;0.50;;;13.60;99.90;;;;;;5056826;28;20469;-89
2021/05/21 13:34:11;;;;;;;1.70;0.60;;;;;;;;;;5058477;28;20590;-90
2021/05/21 13:36:38;;;;;;;2.60;0.77;;;;;;;;;;5059487;28;20785;-91
2021/05/21 13:39:05;;;;;;;0.73;0.50;;;;;;;;;;5056563;28;20455;-88
2021/05/21 13:41:32;;;;;;;1.53;0.57;;;;;;;;;;5056057;28;20443;-90
2021/05/21 13:43:59;;;;;;;4.90;0.80;;;;;;;;;;5057070;28;20839;-90
2021/05/21 13:46:25;;;;;;;1.10;0.60;;;;;;;;;;5057170;28;20455;-89
2021/05/21 13:48:53;;;;;;;0.80;0.57;;;;;;;;;;5055386;28;20447;-89
2021/05/21 13:51:20;;;;;;;0.60;0.50;;;;;;;;;;5055729;28;20459;-90
2021/05/21 13:53:47;;;;;;;0.77;0.40;;;;;;;;;;5057729;28;20458;-89
2021/05/21 13:56:14;;;;;;;3.60;1.27;;;;;;;;;;5057246;28;20449;-91
2021/05/21 13:58:48;;;;;;;0.60;0.50;;;13.60;99.90;;;;;;5062432;28;20446;-91
2021/05/21 14:01:15;;;;;;;1.27;0.63;;;;;;;;;;5061549;28;20435;-92
2021/05/21 14:03:43;;;;;;;0.90;0.60;;;;;;;;;;5062290;28;20482;-92